nws-alerts: Checking more than four warning/county codes can delay the loading of your pages. You should use a cron job to get the data.
EllijayWeather Historical Data
 
Daily Summary for July 02, 2020 Units:  English    Metric   Both
Daily Weekly Monthly Yearly
  Current: High: Low: Average:
Temperature: 74.8 °F 86.5 °F 65.5 °F 73.2 °F
Dew Point: 73.9 °F 77.9 °F 64.9 °F 70.4 °F
Humidity: 97% 100% 70% 92%
Wind Speed: 0mph 5mph 0mph 0.4mph
Wind Gust: 0mph 7mph - -
WindCalm - - WSW
Pressure: 29.9 in 30.0 in 29.9 in -
Precipitation: 0.350 in      
 
 
Tabular Data for July 02, 2020
Time Temperature Dew Point Pressure Wind Wind Speed Wind Gust Humidity Rainfall Rate (Hourly)
00:04 68.5 °F 67.6 °F 29.9 in Calm     97% 0.000 in
00:09 68.4 °F 67.5 °F 29.9 in Calm     97% 0.000 in
00:14 68.4 °F 67.5 °F 29.9 in Calm     97% 0.000 in
00:19 68.4 °F 67.5 °F 29.9 in Calm     97% 0.000 in
00:24 68.2 °F 67.3 °F 29.9 in Calm     97% 0.000 in
00:29 68.2 °F 67.3 °F 29.9 in Calm     97% 0.000 in
00:34 68.2 °F 67.3 °F 29.9 in Calm     97% 0.000 in
00:39 68.0 °F 67.1 °F 29.9 in Calm     97% 0.000 in
00:44 67.8 °F 66.9 °F 29.9 in Calm     97% 0.000 in
00:49 67.8 °F 66.9 °F 29.9 in Calm     97% 0.000 in
00:54 67.8 °F 66.9 °F 29.9 in Calm     97% 0.000 in
00:59 67.6 °F 66.7 °F 29.9 in Calm     97% 0.000 in
01:04 67.5 °F 66.6 °F 29.9 in Calm     97% 0.000 in
01:09 67.5 °F 66.6 °F 29.9 in Calm     97% 0.000 in
01:14 67.5 °F 66.6 °F 29.9 in Calm     97% 0.000 in
01:24 67.1 °F 66.2 °F 29.9 in Calm     97% 0.000 in
01:29 67.1 °F 66.2 °F 29.9 in Calm     97% 0.000 in
01:34 66.9 °F 66.0 °F 29.9 in Calm     97% 0.000 in
01:39 66.9 °F 66.0 °F 29.9 in Calm     97% 0.000 in
01:44 66.9 °F 66.0 °F 29.9 in Calm     97% 0.000 in
01:49 66.7 °F 65.8 °F 29.9 in Calm     97% 0.000 in
01:54 66.7 °F 65.8 °F 29.9 in Calm     97% 0.000 in
01:59 66.7 °F 65.8 °F 29.9 in Calm     97% 0.000 in
02:04 66.6 °F 65.7 °F 29.9 in Calm     97% 0.000 in
02:09 66.6 °F 65.7 °F 29.9 in Calm     97% 0.000 in
02:14 66.6 °F 65.7 °F 29.9 in Calm     97% 0.000 in
02:19 66.6 °F 66.0 °F 29.9 in Calm     98% 0.000 in
02:24 66.6 °F 66.0 °F 29.9 in Calm     98% 0.000 in
02:29 66.6 °F 66.0 °F 29.9 in Calm     98% 0.000 in
02:34 66.6 °F 66.0 °F 29.9 in Calm     98% 0.000 in
02:39 66.6 °F 66.0 °F 29.9 in Calm     98% 0.000 in
02:44 66.6 °F 66.0 °F 29.9 in Calm     98% 0.000 in
02:49 66.6 °F 66.0 °F 29.9 in Calm     98% 0.000 in
02:59 66.6 °F 66.0 °F 29.9 in Calm     98% 0.000 in
03:09 66.4 °F 65.8 °F 29.9 in Calm     98% 0.000 in
03:14 66.4 °F 65.8 °F 29.9 in Calm     98% 0.000 in
03:19 66.4 °F 65.8 °F 29.9 in Calm     98% 0.000 in
03:24 66.4 °F 65.8 °F 29.9 in Calm     98% 0.000 in
03:29 66.4 °F 65.8 °F 29.9 in Calm     98% 0.000 in
03:34 66.4 °F 65.8 °F 29.9 in Calm     98% 0.000 in
03:39 66.4 °F 65.8 °F 29.9 in Calm     98% 0.000 in
03:44 66.4 °F 65.8 °F 29.9 in Calm     98% 0.000 in
03:49 66.4 °F 65.8 °F 29.9 in Calm     98% 0.000 in
03:54 66.4 °F 65.8 °F 29.9 in Calm     98% 0.000 in
03:59 66.2 °F 65.7 °F 29.9 in Calm     98% 0.000 in
04:04 66.2 °F 65.7 °F 29.9 in Calm     98% 0.000 in
04:09 66.4 °F 65.8 °F 29.9 in Calm     98% 0.000 in
04:14 66.2 °F 65.7 °F 29.9 in Calm     98% 0.000 in
04:19 66.2 °F 65.7 °F 29.9 in Calm     98% 0.000 in
04:24 66.2 °F 65.7 °F 29.9 in Calm     98% 0.000 in
04:29 66.2 °F 65.7 °F 29.9 in Calm     98% 0.000 in
04:34 66.2 °F 65.7 °F 29.9 in Calm     98% 0.000 in
04:39 66.2 °F 65.7 °F 29.9 in Calm     98% 0.000 in
04:44 66.0 °F 65.5 °F 29.9 in Calm     98% 0.000 in
04:49 66.0 °F 65.5 °F 29.9 in Calm     98% 0.000 in
04:54 66.0 °F 65.5 °F 29.9 in Calm     98% 0.000 in
04:59 66.0 °F 65.5 °F 29.9 in Calm     98% 0.000 in
05:04 66.0 °F 65.5 °F 29.9 in Calm     98% 0.000 in
05:09 66.0 °F 65.5 °F 29.9 in Calm     98% 0.000 in
05:14 66.0 °F 65.5 °F 29.9 in Calm     98% 0.000 in
05:19 66.0 °F 65.5 °F 29.9 in Calm     98% 0.000 in
05:24 66.0 °F 65.5 °F 29.9 in Calm     98% 0.000 in
05:29 65.8 °F 65.3 °F 29.9 in Calm     98% 0.000 in
05:34 65.8 °F 65.3 °F 29.9 in Calm     98% 0.000 in
05:39 65.8 °F 65.3 °F 29.9 in Calm     98% 0.000 in
05:44 65.8 °F 65.3 °F 29.9 in Calm     98% 0.000 in
05:49 65.8 °F 65.3 °F 29.9 in Calm     98% 0.000 in
05:54 65.8 °F 65.3 °F 29.9 in Calm     98% 0.000 in
05:59 65.8 °F 65.3 °F 29.9 in Calm     98% 0.000 in
06:04 65.8 °F 65.3 °F 29.9 in Calm     98% 0.000 in
06:09 65.8 °F 65.3 °F 29.9 in Calm     98% 0.000 in
06:14 65.7 °F 65.1 °F 29.9 in Calm     98% 0.000 in
06:19 65.7 °F 65.1 °F 29.9 in Calm     98% 0.000 in
06:24 65.7 °F 65.1 °F 29.9 in Calm     98% 0.000 in
06:29 65.7 °F 65.1 °F 29.9 in Calm     98% 0.000 in
06:33 65.7 °F 65.1 °F 29.9 in Calm     98% 0.000 in
06:39 65.7 °F 65.1 °F 29.9 in Calm     98% 0.000 in
06:44 65.7 °F 65.1 °F 29.9 in Calm     98% 0.000 in
06:49 65.7 °F 65.1 °F 29.9 in Calm     98% 0.000 in
06:54 65.7 °F 65.1 °F 29.9 in Calm     98% 0.000 in
06:59 65.5 °F 64.9 °F 29.9 in Calm     98% 0.000 in
07:04 65.7 °F 65.3 °F 29.9 in Calm     99% 0.000 in
07:09 65.7 °F 65.3 °F 29.9 in Calm     99% 0.000 in
07:14 65.7 °F 65.3 °F 29.9 in Calm     99% 0.000 in
07:19 65.7 °F 65.3 °F 29.9 in Calm     99% 0.000 in
07:24 65.7 °F 65.3 °F 29.9 in Calm     99% 0.000 in
07:29 65.8 °F 65.5 °F 29.9 in Calm     99% 0.000 in
07:34 65.8 °F 65.5 °F 29.9 in Calm     99% 0.000 in
07:39 66.0 °F 65.7 °F 30.0 in Calm     99% 0.000 in
07:44 66.2 °F 65.8 °F 30.0 in Calm     99% 0.000 in
07:49 66.4 °F 66.0 °F 30.0 in Calm     99% 0.000 in
07:54 66.6 °F 66.2 °F 30.0 in Calm     99% 0.000 in
07:59 66.6 °F 66.2 °F 30.0 in Calm     99% 0.000 in
08:04 66.7 °F 66.4 °F 30.0 in Calm     99% 0.000 in
08:09 66.9 °F 66.6 °F 30.0 in Calm     99% 0.000 in
08:14 67.1 °F 66.7 °F 30.0 in Calm     99% 0.000 in
08:19 67.3 °F 66.9 °F 30.0 in Calm     99% 0.000 in
08:24 67.6 °F 67.3 °F 30.0 in Calm     99% 0.000 in
08:29 67.8 °F 67.5 °F 30.0 in Calm     99% 0.000 in
08:34 68.2 °F 67.8 °F 30.0 in Calm     99% 0.000 in
08:39 68.4 °F 68.0 °F 30.0 in Calm     99% 0.000 in
08:44 68.7 °F 68.4 °F 30.0 in Calm     99% 0.000 in
08:49 69.1 °F 68.7 °F 30.0 in Calm     99% 0.000 in
08:54 69.4 °F 69.4 °F 30.0 in Calm     100% 0.000 in
08:59 69.6 °F 69.6 °F 30.0 in Calm     100% 0.000 in
09:04 70.2 °F 70.2 °F 30.0 in Calm     100% 0.000 in
09:09 70.5 °F 70.5 °F 30.0 in Calm     100% 0.000 in
09:14 70.9 °F 70.9 °F 30.0 in Calm     100% 0.000 in
09:19 71.2 °F 71.2 °F 30.0 in Calm     100% 0.000 in
09:24 71.4 °F 71.1 °F 30.0 in Calm     99% 0.000 in
09:29 72.0 °F 71.1 °F 30.0 in WNW 3 mph 3 mph 98% 0.000 in
09:34 72.1 °F 70.9 °F 30.0 in NNW 3 mph 4 mph 97% 0.000 in
09:39 72.7 °F 71.2 °F 30.0 in Calm   1 mph 95% 0.000 in
09:44 73.0 °F 71.6 °F 30.0 in Calm     95% 0.000 in
09:49 73.6 °F 71.8 °F 30.0 in Calm     94% 0.000 in
09:54 74.1 °F 72.0 °F 30.0 in Calm     93% 0.000 in
09:59 74.8 °F 72.1 °F 30.0 in Calm     92% 0.000 in
10:04 75.6 °F 72.5 °F 30.0 in Calm   1 mph 91% 0.000 in
10:09 75.7 °F 72.7 °F 30.0 in NNW 3 mph 3 mph 91% 0.000 in
10:14 76.3 °F 73.0 °F 30.0 in Calm   3 mph 90% 0.000 in
10:19 76.6 °F 73.0 °F 30.0 in NW 1 mph 2 mph 89% 0.000 in
10:24 77.0 °F 73.2 °F 30.0 in NNW 2 mph 3 mph 88% 0.000 in
10:29 77.4 °F 73.4 °F 30.0 in WNW 1 mph 3 mph 88% 0.000 in
10:34 77.5 °F 73.4 °F 30.0 in NNE 2 mph 2 mph 87% 0.000 in
10:39 77.9 °F 73.4 °F 30.0 in NNE 1 mph 1 mph 87% 0.000 in
10:44 78.3 °F 73.4 °F 30.0 in NNE 1 mph 3 mph 85% 0.000 in
10:49 78.6 °F 73.4 °F 30.0 in NNE 1 mph 3 mph 84% 0.000 in
10:54 79.0 °F 73.8 °F 30.0 in NNE 4 mph 7 mph 84% 0.000 in
10:59 79.2 °F 73.6 °F 30.0 in North 2 mph 7 mph 83% 0.000 in
11:04 79.3 °F 74.5 °F 30.0 in North 3 mph 4 mph 85% 0.000 in
11:09 79.5 °F 73.6 °F 30.0 in NNW 5 mph 5 mph 82% 0.000 in
11:14 79.9 °F 74.7 °F 30.0 in NW 3 mph 3 mph 84% 0.000 in
11:19 80.1 °F 74.1 °F 30.0 in Calm   3 mph 82% 0.000 in
11:24 80.4 °F 74.3 °F 30.0 in North 1 mph 1 mph 82% 0.000 in
11:29 81.0 °F 74.5 °F 30.0 in Calm     81% 0.000 in
11:34 81.3 °F 74.7 °F 30.0 in NNE 1 mph 1 mph 81% 0.000 in
11:39 82.0 °F 75.0 °F 30.0 in NW 1 mph 1 mph 80% 0.000 in
11:44 82.4 °F 74.8 °F 29.9 in NNW 3 mph 5 mph 79% 0.000 in
11:49 82.9 °F 75.4 °F 29.9 in NW 3 mph 4 mph 79% 0.000 in
11:54 83.5 °F 75.0 °F 29.9 in NNW 3 mph 3 mph 76% 0.000 in
11:59 83.8 °F 76.6 °F 29.9 in NW 2 mph 3 mph 80% 0.000 in
12:04 84.6 °F 76.6 °F 29.9 in NW 1 mph 2 mph 78% 0.000 in
12:09 84.9 °F 76.5 °F 29.9 in NW 1 mph 2 mph 76% 0.000 in
12:14 85.3 °F 76.5 °F 29.9 in NW 3 mph 3 mph 75% 0.000 in
12:19 85.6 °F 77.0 °F 29.9 in NW 1 mph 2 mph 76% 0.000 in
12:24 85.5 °F 77.4 °F 29.9 in NW 1 mph 3 mph 77% 0.000 in
12:29 85.6 °F 76.8 °F 29.9 in NNW 4 mph 4 mph 75% 0.000 in
12:34 85.6 °F 75.9 °F 29.9 in NNW 3 mph 4 mph 73% 0.000 in
12:39 86.2 °F 76.6 °F 29.9 in Calm   2 mph 74% 0.000 in
12:44 86.5 °F 76.5 °F 29.9 in NNE 1 mph 1 mph 72% 0.000 in
12:49 86.5 °F 76.5 °F 29.9 in Calm   1 mph 72% 0.000 in
12:54 86.5 °F 76.8 °F 29.9 in NNW 2 mph 4 mph 73% 0.000 in
12:59 86.4 °F 77.0 °F 29.9 in NW 3 mph 4 mph 74% 0.000 in
13:04 86.2 °F 74.7 °F 30.0 in NW 1 mph 2 mph 70% 0.000 in
13:09 85.5 °F 75.4 °F 30.0 in Calm   1 mph 73% 0.000 in
13:14 84.6 °F 75.4 °F 30.0 in Calm     75% 0.000 in
13:19 83.7 °F 75.9 °F 30.0 in Calm     79% 0.000 in
13:24 82.9 °F 76.1 °F 29.9 in Calm   1 mph 81% 0.000 in
13:29 82.2 °F 76.8 °F 29.9 in Calm   1 mph 84% 0.000 in
13:34 82.6 °F 77.2 °F 29.9 in Calm     84% 0.000 in
13:39 83.1 °F 77.2 °F 29.9 in SW 1 mph 1 mph 84% 0.000 in
13:44 83.7 °F 75.7 °F 29.9 in Calm   1 mph 78% 0.000 in
13:49 83.7 °F 76.1 °F 29.9 in WNW 1 mph 1 mph 78% 0.000 in
13:54 83.7 °F 76.8 °F 29.9 in West 1 mph 3 mph 80% 0.000 in
13:59 83.7 °F 76.5 °F 29.9 in Calm     79% 0.000 in
14:04 83.3 °F 76.3 °F 29.9 in Calm     80% 0.000 in
14:09 83.1 °F 76.6 °F 29.9 in Calm     81% 0.000 in
14:14 82.9 °F 76.5 °F 29.9 in Calm     81% 0.000 in
14:19 82.9 °F 76.8 °F 29.9 in Calm     82% 0.000 in
14:24 82.8 °F 76.8 °F 29.9 in Calm     83% 0.000 in
14:29 82.4 °F 77.0 °F 29.9 in Calm     84% 0.000 in
14:34 82.0 °F 77.0 °F 29.9 in Calm     85% 0.000 in
14:39 81.9 °F 76.8 °F 29.9 in Calm     85% 0.000 in
14:44 81.9 °F 77.5 °F 29.9 in Calm     87% 0.000 in
14:49 81.9 °F 77.5 °F 29.9 in Calm   1 mph 87% 0.000 in
14:54 82.0 °F 76.8 °F 29.9 in North 2 mph 2 mph 85% 0.000 in
14:59 82.9 °F 77.2 °F 29.9 in NNW 2 mph 3 mph 85% 0.000 in
15:04 83.7 °F 76.3 °F 29.9 in NNW 1 mph 3 mph 79% 0.000 in
15:09 84.0 °F 76.5 °F 29.9 in Calm   1 mph 78% 0.000 in
15:14 84.6 °F 77.9 °F 29.9 in Calm   1 mph 81% 0.000 in
15:19 84.6 °F 77.7 °F 29.9 in NNW 1 mph 2 mph 80% 0.000 in
15:24 84.6 °F 77.4 °F 29.9 in Calm   1 mph 79% 0.000 in
15:29 84.6 °F 77.4 °F 29.9 in Calm   1 mph 79% 0.000 in
15:34 84.6 °F 77.0 °F 29.9 in SW 3 mph 3 mph 78% 0.000 in
15:39 83.7 °F 76.1 °F 29.9 in South 4 mph 4 mph 78% 0.000 in
15:44 82.2 °F 73.9 °F 29.9 in South 4 mph 4 mph 77% 0.000 in
15:49 81.1 °F 73.8 °F 29.9 in SSE 1 mph 1 mph 80% 0.000 in
15:54 80.2 °F 73.6 °F 29.9 in Calm   1 mph 81% 0.000 in
15:59 79.7 °F 73.6 °F 29.9 in SSE 2 mph 2 mph 83% 0.000 in
16:04 78.6 °F 74.3 °F 29.9 in Calm   2 mph 88% 0.080 in
16:09 77.7 °F 73.8 °F 29.9 in Calm   1 mph 89% 0.240 in
16:14 76.5 °F 73.2 °F 29.9 in Calm     90% 0.300 in
16:19 75.4 °F 72.5 °F 29.9 in Calm     92% 0.320 in
16:24 74.8 °F 72.7 °F 29.9 in Calm     93% 0.340 in
16:29 74.5 °F 72.5 °F 29.9 in Calm     94% 0.350 in
16:34 74.1 °F 72.5 °F 29.9 in Calm     95% 0.350 in
16:39 74.1 °F 72.7 °F 29.9 in Calm     96% 0.350 in
16:44 74.1 °F 72.7 °F 29.9 in Calm     95% 0.350 in
16:49 73.9 °F 72.5 °F 29.9 in Calm     96% 0.350 in
16:54 73.9 °F 72.7 °F 29.9 in Calm     96% 0.350 in
16:59 73.8 °F 72.5 °F 29.9 in Calm     96% 0.350 in
17:04 73.9 °F 73.0 °F 29.9 in Calm     97% 0.340 in
17:09 74.1 °F 73.2 °F 29.9 in Calm     97% 0.270 in
17:14 74.1 °F 73.2 °F 29.9 in Calm     97% 0.110 in
17:19 74.3 °F 73.4 °F 29.9 in Calm     97% 0.050 in
17:24 74.3 °F 73.4 °F 29.9 in Calm     97% 0.030 in
17:29 74.5 °F 73.6 °F 29.9 in Calm     97% 0.000 in
17:34 74.7 °F 74.1 °F 29.9 in Calm     98% 0.000 in
17:39 74.7 °F 74.1 °F 29.9 in Calm     98% 0.000 in
17:44 74.7 °F 73.8 °F 29.9 in Calm     97% 0.000 in
17:49 74.8 °F 73.9 °F 29.9 in Calm     97% 0.000 in
17:54 74.7 °F 73.8 °F 29.9 in Calm     97% 0.000 in
17:59 74.8 °F 73.9 °F 29.9 in Calm     97% 0.000 in
18:04 74.8 °F 73.9 °F 29.9 in Calm     97% 0.000 in
East Ellijay Weather
Compliments of Weather Underground - 2 mb